Fayetteville Regional Grannis Field
KFAY : now visible

Airfield :











YOU CAN JOIN US ON...

 
LOGIN :

Register | Disclaimer

   EN    FR    IT 

 









Legend :    VFR   Marginal VFR   IFR   Intensive IFR   Very Intensive IFR
Visi :
Ceiling :
>= 8 km
>= 3000ft
5 to 8 km
1000 to 3000 ft
1500m to 5 km
500 to 1000 ft
800 to 1500m
200 to 500 ft
< 800m
< 200 ft
Symbols :   Thunderstorms  Fog  Heavy snow  Heavy precipitations  Wind > 20 kt






- Airport Elevation : 189 ft
- IATA code : FAY


KFAY - Fayetteville Regional Grannis Field

CURRENT METAR :
  • 251906Z 05005KT 10SM BKN008 OVC013 19/18 A2997 RMK AO2 CIG 006V011 T01940178

EXPIRED METARs :
  • 251853Z 05007KT 10SM SCT008 BKN014 OVC022 19/18 A2997 RMK AO2 SLP144 T01940178
  • 251753Z 02010KT 6SM BR BKN006 OVC012 19/18 A2999 RMK AO2 RAE53 CIG 004V010 SLP148 P0002 60019 T01940183 10200 20189 58008
  • 251713Z 04007KT 4SM -RA BR BKN006 OVC014 20/18 A3000 RMK AO2 P0001 T02000183
  • 251703Z 05008KT 2 1/2SM -RA BR BKN006 OVC012 20/18 A3000 RMK AO2 P0000 T02000183
  • 251653Z 04008KT 4SM -RA BR BKN006 OVC012 20/19 A3000 RMK AO2 RAE39B41 CIG 004V010 SLP154 P0004 T02000189

TAF KFAY
Valid from the 25 at 18:00 until the 26 at 18:00 UTC


251740Z 2518/2618 03009KT 6SM -RA BR BKN006 OVC015
TEMPO 2518/2522 03010G16KT 5SM -RA BR BKN007
FM260200 02009KT 5SM -DZ BR OVC004
FM260800 01006KT P6SM OVC003
FM261500 36005KT P6SM BKN008
FM261700 36005KT P6SM BKN015
KZDC FIR / North America



MET'MAP, your aeronautical weather chart ! - Copyright ORBIFLY December 2007 - Disclaimer

ORBIFLY MET'MAP TEAM :

Programming & Development : Alexandra Zaïnal
Concept & original design : Baudouin d'Aumeries
Assistance for programming : Marc-Olivier Méhu
Technical & hardware support : Manuel Goepfert

Contact : metmap@orbifly.com




SOURCES & CREDITS :

   NOAA       Earth
Advisory